Terminal Aerodrome Forecast
Issued by NWS

Home | Current Version | Previous Version | Text Only | Print | Product List | Glossary On
Versions: 1 2 3 4 5 6 7 8 9 10 11 12 13 14 15 16 17 18 19 20 21 22 23 24 25 26 27 28
448
FTUS43 KDVN 201738
TAFCID
TAF
KCID 201738Z 2018/2118 20014G19KT P6SM SCT030
      TEMPO 2019/2022 P6SM BKN030
     FM202200 23008KT P6SM SCT030
     FM202330 26006KT P6SM VCTS SCT030CB
      TEMPO 2100/2104 VRB15G25KT 4SM -TSRA BR BKN023CB
     FM210500 02005KT 6SM BR BKN020
     FM210800 03007KT 2SM BR BKN012
     FM211300 10007KT 2SM BR BKN018
     FM211600 14008KT 5SM BR BKN022=

USA.gov is the U.S. government's official web portal to all federal, state and local government web resources and services.